Weather observations for the past three days for
Kennett - Kennett Memorial Airport
Metric (Imperial)
Date Time (cdt) Wind (kph) Vis. (km) Weather Sky Cond. Temperature (ºC) Relative Humidity Wind Chill (°C) Heat Index (°C) Pressure Precipitation (cm)
Air Dwpt 6 hour altimeter (cm) sea level (mb) 1 hr 3 hr 6 hr
Max. Min.
31 20:15 E 6 16.09 Fair CLR 28 28 100% 36 76.17 0.0
31 19:55 Calm 16.09 Fair CLR 28 28 100% 36 76.17 0.0
31 19:35 Calm 16.09 Fair CLR 30 26 79% 37 76.15 0.0
31 19:15 Calm 16.09 Fair CLR 32 24 63% 38 76.15 0.0
31 18:55 Calm 16.09 Fair CLR 34 23 53% 39 76.15 0.0
31 18:35 SW 6 16.09 Fair CLR 35 22 47% 39 76.17 0.0
31 18:15 SW 11 16.09 Fair CLR 35 22 47% 39 76.17 0.0
31 17:55 S 9 16.09 Fair CLR 36 21 42% 40 76.17 0.0
31 17:35 S 13 16.09 Fair CLR 36 21 42% 40 76.2 0.0
31 17:15 S 11 16.09 Fair CLR 36 21 42% 40 76.2 0.0
31 16:55 S 9 16.09 Fair CLR 36 20 39% 39 76.2 0.0
31 16:35 S 13 16.09 Fair CLR 36 21 42% 40 76.2 0.0
31 16:15 SW 17 16.09 Fair CLR 36 20 39% 39 76.23 0.0
31 15:55 S 15 16.09 Fair CLR 36 21 42% 40 76.23 0.0
31 15:35 SW 15 16.09 Fair CLR 37 21 39% 41 76.25 0.0
31 15:15 S 15 16.09 Fair CLR 36 20 39% 39 76.25 0.0
31 14:55 SW 17 G 26 16.09 Fair CLR 36 21 42% 40 76.28 0.0
31 14:35 SW 17 16.09 Fair CLR 36 22 44% 41 76.3 0.0
31 14:15 S 15 G 26 16.09 Fair CLR 36 23 47% 42 76.3 0.0
31 13:55 Vrbl 11 16.09 Fair CLR 36 23 47% 42 76.33 0.0
31 13:35 SW 15 16.09 Fair CLR 35 23 50% 41 76.35 0.0
31 13:15 S 11 G 22 16.09 Fair CLR 35 23 50% 41 76.35 0.0
31 12:55 S 17 16.09 Fair CLR 35 24 53% 42 76.38 0.0
31 12:35 SW 11 16.09 Fair CLR 35 23 50% 41 76.38 0.0
31 12:15 SW 19 16.09 Fair CLR 35 23 50% 41 76.4 0.0
31 11:55 SW 13 16.09 Fair CLR 34 24 56% 41 76.4 0.0
31 11:35 SW 13 16.09 Fair CLR 34 24 56% 41 76.43 0.0
31 11:15 SW 15 16.09 Fair CLR 34 25 59% 42 76.43 0.0
31 10:55 W 11 16.09 Fair CLR 33 26 67% 42 76.43 0.0
31 10:35 SW 11 16.09 Fair CLR 32 27 75% 42 76.43 0.0
31 10:15 S 9 16.09 Fair CLR 31 27 79% 41 76.43 0.0
31 09:55 S 13 16.09 Fair CLR 31 27 79% 41 76.4 0.0
31 09:35 S 13 16.09 Fair CLR 30 27 84% 39 76.4 0.0
31 09:15 SW 11 16.09 Fair CLR 29 27 89% 37 76.4 0.0
31 08:55 S 9 16.09 Fair CLR 28 27 94% 35 76.4 0.0
31 08:35 S 9 16.09 Fair CLR 28 27 94% 35 76.4 0.0
31 08:15 SW 9 16.09 Fair CLR 27 26 94% 31 76.4 0.0
31 07:55 Calm 16.09 Fair CLR 25 25 100% 25 76.38 0.0
31 07:35 S 6 16.09 Fair CLR 24 24 100% 23 76.38 0.0
31 07:15 SE 7 16.09 Fair CLR 22 22 100% 76.35 0.0
31 06:55 Calm 16.09 Fair CLR 22 22 100% 76.35 0.0
31 06:35 Calm 16.09 Fair CLR 22 22 100% 76.33 0.0
31 06:15 Calm 16.09 Fair CLR 22 22 100% 76.33 0.0
31 05:55 Calm 16.09 Fair CLR 22 22 100% 76.3 0.0
31 05:35 Calm 16.09 Fair CLR 22 22 100% 76.3 0.0
31 05:15 SE 6 16.09 Fair CLR 22 22 100% 76.28 0.0
31 04:55 SE 6 16.09 Fair CLR 22 22 100% 76.25 0.0
31 04:35 Calm 16.09 Fair CLR 22 22 100% 76.25 0.0
31 04:15 Calm 16.09 Fair CLR 23 23 100% 76.25 0.0
31 03:55 Calm 16.09 Fair CLR 23 23 100% 76.25 0.0
31 03:35 Calm 16.09 Fair CLR 23 23 100% 76.25 0.0
31 03:15 Calm 16.09 Fair CLR 23 23 100% 76.23 0.0
31 02:55 S 6 16.09 Fair CLR 23 23 100% 76.2 0.0
31 02:35 Calm 16.09 Fair CLR 24 24 100% 23 76.23 0.0
31 02:15 Calm 16.09 Fair CLR 24 24 100% 23 76.23 0.0
31 01:55 Calm 16.09 Fair CLR 24 24 100% 23 76.23 0.0
31 01:35 S 6 16.09 Partly Cloudy SCT060 24 24 100% 23 76.25 0.0
31 01:15 S 6 16.09 Mostly Cloudy BKN060 25 25 100% 25 76.25 0.0
31 00:55 S 7 16.09 Mostly Cloudy BKN060 BKN070 24 24 100% 23 76.25 0.0
31 00:35 Calm 16.09 Partly Cloudy SCT060 24 24 100% 23 76.23 0.0
31 00:15 SE 7 16.09 Mostly Cloudy BKN060 25 25 100% 25 76.25 0.0
30 23:55 Calm 16.09 Partly Cloudy SCT060 25 25 100% 25 76.25 0.0
30 23:35 SE 7 16.09 A Few Clouds FEW060 FEW070 25 25 100% 25 76.25 0.0
30 23:15 E 6 16.09 Partly Cloudy SCT060 25 25 100% 25 76.25 0.0
30 22:55 SE 6 16.09 Partly Cloudy SCT060 25 25 100% 25 76.23 0.0
30 22:35 SE 6 16.09 Partly Cloudy SCT060 25 25 100% 25 76.23 0.0
30 22:15 SE 6 16.09 Mostly Cloudy BKN060 25 25 100% 25 76.25 0.0
30 21:55 E 6 16.09 A Few Clouds FEW060 26 26 100% 28 76.23 0.0
30 21:35 E 6 16.09 Fair CLR 26 26 100% 28 76.23 0.0
30 21:15 E 7 16.09 Fair CLR 26 26 100% 28 76.2 0.0
30 20:55 E 7 16.09 Fair CLR 26 25 94% 28 76.2 0.0
30 20:35 Calm 16.09 Fair CLR 26 26 100% 28 76.17 0.0
30 20:15 Calm 16.09 Fair CLR 27 26 94% 31 76.17 0.0
30 19:55 Calm 16.09 Fair CLR 28 21 66% 30 76.17 0.0
30 19:35 Calm 16.09 Fair CLR 29 22 66% 32 76.15 0.0
30 19:15 Calm 16.09 Fair CLR 32 20 49% 34 76.15 0.0
30 18:55 Calm 16.09 Fair CLR 33 20 46% 35 76.15 0.0
30 18:35 Calm 16.09 Fair CLR 34 20 44% 36 76.15 0.0
30 18:15 SW 6 16.09 Fair CLR 34 18 39% 35 76.17 0.0
30 17:55 Calm 16.09 Fair CLR 35 17 34% 36 76.17 0.0
30 17:35 W 7 16.09 Fair CLR 35 17 34% 36 76.17 0.0
30 17:15 Vrbl 9 16.09 Fair CLR 36 17 32% 37 76.17 0.0
30 16:55 Vrbl 9 16.09 Fair CLR 36 17 32% 37 76.17 0.0
30 16:35 SW 9 16.09 Fair CLR 35 16 32% 35 76.17 0.0
30 16:15 SW 15 16.09 Fair CLR 36 17 32% 37 76.2 0.0
30 15:55 SW 20 16.09 Fair CLR 36 16 30% 36 76.23 0.0
30 15:35 SW 15 G 24 16.09 Fair CLR 36 16 30% 36 76.23 0.0
30 15:15 S 15 G 24 16.09 Fair CLR 36 17 32% 37 76.25 0.0
30 14:55 S 17 G 28 16.09 Fair CLR 35 16 32% 35 76.25 0.0
30 14:35 SW 20 16.09 Fair CLR 35 15 30% 35 76.28 0.0
30 14:15 S 17 G 28 16.09 Fair CLR 35 15 30% 35 76.3 0.0
30 13:35 SW 20 16.09 Fair CLR 35 15 30% 35 76.33 0.0
30 13:15 SW 17 16.09 Fair CLR 35 16 32% 35 76.33 0.0
30 12:55 SW 17 G 30 16.09 Fair CLR 35 15 30% 35 76.35 0.0
30 12:35 SW 13 G 24 16.09 Fair CLR 34 16 34% 34 76.35 0.0
30 12:15 SW 15 16.09 Fair CLR 34 17 36% 35 76.38 0.0
30 11:55 SW 17 G 26 16.09 Fair CLR 34 16 34% 34 76.38 0.0
30 11:35 SW 13 G 22 16.09 Fair CLR 33 17 38% 33 76.38 0.0
30 11:15 SW 15 16.09 Fair CLR 33 18 41% 34 76.38 0.0
30 10:55 S 13 16.09 Fair CLR 32 20 49% 34 76.38 0.0
30 10:35 SW 15 16.09 Fair CLR 32 19 46% 33 76.38 0.0
30 10:15 S 7 16.09 Fair CLR 31 23 62% 35 76.38 0.0
30 09:55 Vrbl 7 16.09 Fair CLR 29 24 74% 34 76.35 0.0
30 09:35 S 11 16.09 Fair CLR 28 24 79% 32 76.38 0.0
30 09:15 S 9 16.09 Fair CLR 27 25 89% 31 76.38 0.0
30 08:55 SE 13 16.09 Fair CLR 26 25 94% 28 76.38 0.0
30 08:35 S 6 16.09 Fair CLR 24 24 100% 23 76.38 0.0
30 08:15 Calm 16.09 Fair CLR 23 23 100% 76.4 0.0
30 07:55 Calm 14.48 Fair CLR 21 21 100% 76.4 0.0
30 07:35 Calm 4.83 Fog/Mist CLR 20 20 100% 76.38 0.0
30 07:15 Calm 8.05 Fog/Mist CLR 19 19 100% 76.38 0.0
30 06:55 Calm 3.22 Fog/Mist CLR 19 19 100% 76.35 0.0
30 06:35 Calm 9.66 Fog/Mist CLR 18 18 100% 76.35 0.0
30 06:15 Calm 6.44 Fog/Mist CLR 19 19 100% 76.33 0.0
30 05:55 Calm 9.66 Fog/Mist CLR 19 19 100% 76.3 0.0
30 05:35 E 6 11.27 Fair CLR 19 19 100% 76.3 0.0
30 05:15 Calm 12.87 Fair CLR 19 19 100% 76.28 0.0
30 04:55 NE 6 9.66 Fog/Mist CLR 19 19 100% 76.28 0.0
30 04:35 E 6 14.48 Fair CLR 19 19 100% 76.28 0.0
30 04:15 Calm 16.09 Fair CLR 20 20 100% 76.28 0.0
30 03:55 E 6 14.48 Fair CLR 19 19 100% 76.3 0.0
30 03:35 Calm 16.09 Fair CLR 20 20 100% 76.3 0.0
30 03:15 Calm 16.09 Fair CLR 20 20 100% 76.3 0.0
30 02:55 Calm 16.09 Fair CLR 20 20 100% 76.28 0.0
30 02:35 Calm 16.09 Fair CLR 21 21 100% 76.3 0.0
30 02:15 Calm 16.09 Fair CLR 21 21 100% 76.33 0.0
30 01:55 Calm 16.09 Fair CLR 21 21 100% 76.33 0.0
30 01:35 Calm 16.09 Fair CLR 21 21 100% 76.33 0.0
30 00:55 E 6 14.48 Fair CLR 21 21 100% 76.33 0.0
30 00:35 Calm 16.09 Fair CLR 21 21 100% 76.3 0.0
29 23:35 Calm 16.09 Fair CLR 22 22 100% 76.3 0.0
29 23:15 Calm 16.09 Fair CLR 22 22 100% 76.3 0.0
29 22:55 Calm 16.09 Fair CLR 22 22 100% 76.3 0.0
29 22:35 Calm 16.09 Fair CLR 22 22 100% 76.3 0.0
29 22:15 Calm 16.09 Fair CLR 23 23 100% 76.3 0.0
29 21:55 Calm 16.09 Fair CLR 23 23 100% 76.3 0.0
29 21:35 Calm 16.09 Fair CLR 24 23 94% 23 76.3 0.0
29 21:15 Calm 16.09 Fair CLR 24 24 100% 23 76.3 0.0
29 20:55 Calm 16.09 Fair CLR 26 23 84% 28 76.28 0.0
29 20:35 Calm 16.09 Fair CLR 25 23 89% 26 76.28 0.0
29 20:15 Calm 16.09 Fair CLR 26 20 70% 27 76.25 0.0
29 19:55 Calm 16.09 Fair CLR 26 22 79% 28 76.23 0.0
29 19:35 Calm 16.09 Fair CLR 28 23 74% 31 76.23 0.0
29 19:15 Calm 16.09 Fair CLR 29 20 58% 31 76.23 0.0
29 18:55 Calm 16.09 Fair CLR 31 20 52% 33 76.23 0.0
29 18:35 Calm 16.09 Fair CLR 32 20 49% 34 76.25 0.0
29 18:15 Calm 16.09 Fair CLR 31 19 49% 32 76.25 0.0
29 17:55 NE 6 16.09 Fair CLR 32 18 43% 33 76.25 0.0
29 17:35 Calm 16.09 Fair CLR 33 18 41% 34 76.25 0.0
29 17:15 SE 9 16.09 Fair CLR 33 18 41% 34 76.25 0.0
29 16:55 Calm 16.09 Fair CLR 33 18 41% 34 76.28 0.0
29 16:35 SE 7 16.09 Fair CLR 33 18 41% 34 76.28 0.0
29 16:15 Calm 16.09 Fair CLR 33 18 41% 34 76.28 0.0
29 15:55 Calm 16.09 Fair CLR 33 18 41% 34 76.28 0.0
29 15:35 Vrbl 6 16.09 Fair CLR 33 19 44% 35 76.3 0.0
29 15:15 Vrbl 6 16.09 Fair CLR 32 18 43% 33 76.35 0.0
29 14:55 Vrbl 7 16.09 Fair CLR 32 18 43% 33 76.35 0.0
29 14:35 Vrbl 7 16.09 Fair CLR 33 18 41% 34 76.35 0.0
29 14:15 SE 11 16.09 Fair CLR 33 18 41% 34 76.38 0.0
29 13:55 Vrbl 7 16.09 Fair CLR 32 18 43% 33 76.38 0.0
29 13:35 Vrbl 7 G 26 16.09 Fair CLR 32 18 43% 33 76.4 0.0
29 12:55 SE 9 G 19 16.09 A Few Clouds FEW055 32 18 43% 33 76.43 0.0
29 12:35 Vrbl 11 16.09 Mostly Cloudy BKN050 BKN055 31 18 46% 32 76.45 0.0
29 11:15 Calm 16.09 Fair CLR 30 23 66% 34 76.5 0.0
29 10:55 Calm 16.09 Fair CLR 29 23 70% 33 76.5 0.0
29 10:35 Calm 16.09 Fair CLR 28 24 79% 32 76.5 0.0
29 10:15 Calm 16.09 Fair CLR 28 25 84% 33 76.5 0.0
29 09:55 Calm 16.09 Fair CLR 27 25 89% 31 76.53 0.0
29 09:35 Calm 16.09 Fair CLR 26 25 94% 28 76.5 0.0
29 09:15 Calm 16.09 Fair CLR 25 25 100% 25 76.5 0.0
29 08:55 Vrbl 7 16.09 Fair CLR 25 24 94% 26 76.5 0.0
29 08:35 E 9 16.09 Fair CLR 24 24 100% 23 76.5 0.0
29 08:15 NE 7 16.09 Fair CLR 23 23 100% 76.5 0.0
29 07:55 Vrbl 7 16.09 Fair CLR 22 22 100% 76.48 0.0
29 07:35 NE 9 16.09 Fair CLR 21 21 100% 76.48 0.0
29 07:15 N 11 16.09 Fair CLR 20 20 100% 76.48 0.0
29 06:55 N 7 14.48 Fair CLR 19 19 100% 76.48 0.0
29 06:35 N 9 16.09 Fair CLR 18 18 100% 76.45 0.0
29 06:15 N 6 16.09 Fair CLR 19 19 100% 76.43 0.0
29 05:55 N 7 16.09 Fair CLR 19 19 100% 76.43 0.0
29 05:35 N 7 16.09 Fair CLR 19 19 100% 76.4 0.0
29 05:15 N 9 16.09 Fair CLR 19 19 100% 76.4 0.0
29 04:55 N 6 16.09 Fair CLR 19 19 100% 76.38 0.0
29 04:35 E 6 16.09 Fair CLR 20 20 100% 76.38 0.0
29 04:15 N 11 16.09 Fair CLR 20 20 100% 76.4 0.0
29 03:55 N 11 16.09 Fair CLR 20 20 100% 76.4 0.0
29 03:35 N 11 16.09 Fair CLR 20 20 100% 76.4 0.0
29 03:15 N 11 16.09 Fair CLR 20 20 100% 76.4 0.0
29 02:55 N 7 16.09 Fair CLR 20 20 100% 76.38 0.0
29 02:35 N 7 16.09 Fair CLR 20 20 100% 76.43 0.0
29 02:15 N 9 16.09 Fair CLR 20 20 100% 76.4 0.0
29 01:55 N 7 16.09 Fair CLR 21 21 100% 76.38 0.0
29 01:35 Calm 16.09 Fair CLR 21 21 100% 76.4 0.0
29 01:15 N 7 16.09 Fair CLR 21 21 100% 76.4 0.0
29 00:35 N 6 16.09 Fair CLR 22 22 100% 76.43 0.0
29 00:15 N 9 16.09 Fair CLR 22 22 100% 76.43 0.0
28 23:55 N 7 16.09 Fair CLR 23 22 94% 76.43 0.0
28 23:35 N 7 16.09 Fair CLR 22 22 100% 76.4 0.0
28 23:15 N 9 16.09 Fair CLR 22 22 100% 76.43 0.0
28 22:55 N 6 16.09 Fair CLR 23 22 94% 76.43 0.0
28 22:35 Calm 16.09 Fair CLR 23 22 94% 76.4 0.0
28 22:15 N 6 16.09 Fair CLR 23 22 94% 76.4 0.0
28 21:55 N 7 16.09 Fair CLR 23 22 94% 76.4 0.0
28 21:35 N 6 16.09 Fair CLR 24 21 83% 24 76.4 0.0
28 21:15 Calm 16.09 Fair CLR 24 21 83% 24 76.38 0.0
28 20:55 N 7 16.09 Fair CLR 24 20 78% 24 76.38 0.0
28 20:35 N 6 16.09 Fair CLR 25 20 74% 26 76.35 0.0
Date Time (cdt) Wind (kph) Vis. (km) Weather Sky Cond. Air Dwpt Max. Min. Relative Humidity Wind Chill (°C) Heat Index (°C) altimeter (cm) sea level (mb) 1 hr 3 hr 6 hr
6 hour
Temperature (ºC) Pressure Precipitation (cm)